createdAt,value
2022-09-01T00:00:03.910Z,16.74
2022-09-01T00:02:32.643Z,16.66
2022-09-01T00:05:04.715Z,16.67
2022-09-01T00:07:36.457Z,16.60
2022-09-01T00:10:09.357Z,16.58
2022-09-01T00:12:39.571Z,16.52
2022-09-01T00:15:11.825Z,16.49
2022-09-01T00:17:41.528Z,16.48
2022-09-01T00:20:15.880Z,16.47
2022-09-01T00:22:48.175Z,16.45
2022-09-01T00:25:19.654Z,16.44
2022-09-01T00:27:50.021Z,16.33
2022-09-01T00:30:20.573Z,16.29
2022-09-01T00:32:50.144Z,16.30
2022-09-01T00:35:21.703Z,16.31
2022-09-01T00:37:52.634Z,16.31
2022-09-01T00:40:21.335Z,16.31
2022-09-01T00:42:50.220Z,16.26
2022-09-01T00:45:23.086Z,16.27
2022-09-01T00:47:52.067Z,16.23
2022-09-01T00:50:22.301Z,16.18
2022-09-01T00:52:56.748Z,16.15
2022-09-01T00:55:32.783Z,16.09
2022-09-01T00:58:03.658Z,16.13
2022-09-01T01:00:41.931Z,16.13
2022-09-01T01:03:12.294Z,16.10
2022-09-01T01:05:54.408Z,16.01
2022-09-01T01:08:34.442Z,15.99
2022-09-01T01:11:05.746Z,16.02
2022-09-01T01:13:38.488Z,15.96
2022-09-01T01:16:08.410Z,15.94
2022-09-01T01:18:37.590Z,15.89
2022-09-01T01:21:33.444Z,15.87
2022-09-01T01:24:12.075Z,15.76
2022-09-01T01:26:43.544Z,15.71
2022-09-01T01:29:12.128Z,15.74
2022-09-01T01:31:41.057Z,15.72
2022-09-01T01:34:10.980Z,15.69
2022-09-01T01:36:42.280Z,15.71
2022-09-01T01:39:15.029Z,15.60
2022-09-01T01:41:48.964Z,15.60
2022-09-01T01:44:21.483Z,15.52
2022-09-01T01:46:53.427Z,15.54
2022-09-01T01:49:29.827Z,15.55
2022-09-01T01:51:59.687Z,15.46
2022-09-01T01:54:33.278Z,15.41
2022-09-01T01:57:04.662Z,15.41
2022-09-01T01:59:34.603Z,15.37
2022-09-01T02:02:09.902Z,15.37
2022-09-01T02:04:40.433Z,15.35
2022-09-01T02:07:13.326Z,15.33
2022-09-01T02:09:46.150Z,15.33
2022-09-01T02:12:19.540Z,15.30
2022-09-01T02:14:48.687Z,15.24
2022-09-01T02:17:17.178Z,15.22
2022-09-01T02:19:48.224Z,15.18
2022-09-01T02:22:19.848Z,15.10
2022-09-01T02:24:49.822Z,15.09
2022-09-01T02:27:22.648Z,15.10
2022-09-01T02:29:55.484Z,15.09
2022-09-01T02:32:25.000Z,15.03
2022-09-01T02:35:01.357Z,14.99
2022-09-01T02:37:30.557Z,14.98
2022-09-01T02:39:59.597Z,14.95
2022-09-01T02:42:29.721Z,14.91
2022-09-01T02:44:59.216Z,14.91
2022-09-01T02:47:31.166Z,14.91
2022-09-01T02:50:03.589Z,14.96
2022-09-01T02:52:40.526Z,14.85
2022-09-01T02:55:11.814Z,14.83
2022-09-01T02:57:42.252Z,14.83
2022-09-01T03:00:20.878Z,14.84
2022-09-01T03:02:53.052Z,14.87
2022-09-01T03:05:26.091Z,14.85
2022-09-01T03:07:57.930Z,14.87
2022-09-01T03:10:33.405Z,14.91
2022-09-01T03:13:07.596Z,14.89
2022-09-01T03:15:38.752Z,14.89
2022-09-01T03:18:10.188Z,14.86
2022-09-01T03:20:43.446Z,14.86
2022-09-01T03:23:19.234Z,14.83
2022-09-01T03:25:50.005Z,14.79
2022-09-01T03:28:20.240Z,14.79
2022-09-01T03:30:53.227Z,14.82
2022-09-01T03:33:25.136Z,14.77
2022-09-01T03:35:56.928Z,14.77
2022-09-01T03:38:27.023Z,14.76
2022-09-01T03:41:02.770Z,14.78
2022-09-01T03:43:35.954Z,14.75
2022-09-01T03:46:08.423Z,14.69
2022-09-01T03:48:37.854Z,14.62
2022-09-01T03:51:07.921Z,14.61
2022-09-01T03:53:40.440Z,14.65
2022-09-01T03:56:10.031Z,14.67
2022-09-01T03:58:44.685Z,14.66
2022-09-01T04:01:14.260Z,14.59
2022-09-01T04:03:49.145Z,14.60
2022-09-01T04:06:19.831Z,14.58
2022-09-01T04:08:49.052Z,14.61
2022-09-01T04:11:24.377Z,14.56
2022-09-01T04:13:54.724Z,14.47
2022-09-01T04:16:44.777Z,14.41
2022-09-01T04:19:25.909Z,14.38
2022-09-01T04:22:00.353Z,14.37
2022-09-01T04:24:32.275Z,14.36
2022-09-01T04:27:03.343Z,14.32
2022-09-01T04:29:34.334Z,14.28
2022-09-01T04:32:07.029Z,14.24
2022-09-01T04:34:40.130Z,14.22
2022-09-01T04:37:13.285Z,14.19
2022-09-01T04:39:52.674Z,14.13
2022-09-01T04:42:25.667Z,14.10
2022-09-01T04:44:57.757Z,14.10
2022-09-01T04:47:36.169Z,14.18
2022-09-01T04:50:14.309Z,14.11
2022-09-01T04:52:44.333Z,14.10
2022-09-01T04:55:18.731Z,14.11
2022-09-01T04:57:50.161Z,14.10
2022-09-01T05:00:26.202Z,14.05
2022-09-01T05:03:03.460Z,14.04
2022-09-01T05:05:42.604Z,14.01
2022-09-01T05:08:23.203Z,13.99
2022-09-01T05:10:57.292Z,13.97
2022-09-01T05:13:29.901Z,13.99
2022-09-01T05:16:07.563Z,13.98
2022-09-01T05:18:36.910Z,13.96
2022-09-01T05:21:10.136Z,13.94
2022-09-01T05:23:40.680Z,13.90
2022-09-01T05:26:17.065Z,13.93
2022-09-01T05:28:45.960Z,13.92
2022-09-01T05:31:19.854Z,13.97
2022-09-01T05:33:50.274Z,13.98
2022-09-01T05:36:23.146Z,14.02
2022-09-01T05:38:52.719Z,14.03
2022-09-01T05:41:24.078Z,14.08
2022-09-01T05:44:00.336Z,14.07
2022-09-01T05:46:31.465Z,14.04
2022-09-01T05:49:00.760Z,14.08
2022-09-01T05:51:44.288Z,14.14
2022-09-01T05:54:15.254Z,14.22
2022-09-01T05:56:45.470Z,14.27
2022-09-01T05:59:24.762Z,14.31
2022-09-01T06:01:57.021Z,14.38
2022-09-01T06:04:27.857Z,14.44
2022-09-01T06:07:05.573Z,14.49
2022-09-01T06:09:40.484Z,14.57
2022-09-01T06:12:18.424Z,14.64
2022-09-01T06:14:49.591Z,14.66
2022-09-01T06:17:25.275Z,14.68
2022-09-01T06:19:56.297Z,14.69
2022-09-01T06:22:28.789Z,14.76
2022-09-01T06:25:02.800Z,14.75
2022-09-01T06:27:32.036Z,14.77
2022-09-01T06:30:01.641Z,14.82
2022-09-01T06:32:33.872Z,14.86
2022-09-01T06:35:04.132Z,14.90
2022-09-01T06:37:35.156Z,14.95
2022-09-01T06:40:06.508Z,15.03
2022-09-01T06:42:35.841Z,15.05
2022-09-01T06:45:04.692Z,15.12
2022-09-01T06:47:35.580Z,15.20
2022-09-01T06:50:08.592Z,15.26
2022-09-01T06:55:34.807Z,15.40
2022-09-01T06:58:07.314Z,15.46
2022-09-01T07:00:42.619Z,15.52
2022-09-01T07:03:15.893Z,15.62
2022-09-01T07:06:04.650Z,15.70
2022-09-01T07:14:22.334Z,16.08
2022-09-01T07:16:53.432Z,16.21
2022-09-01T07:19:49.006Z,16.33
2022-09-01T07:25:11.945Z,16.55
2022-09-01T07:27:49.750Z,16.68
2022-09-01T07:30:24.237Z,16.78
2022-09-01T07:32:54.244Z,16.88
2022-09-01T07:35:25.991Z,16.97
2022-09-01T07:38:47.716Z,17.05
2022-09-01T07:43:34.276Z,17.21
2022-09-01T07:51:50.245Z,17.45
2022-09-01T07:54:21.359Z,17.48
2022-09-01T07:56:51.075Z,17.54
2022-09-01T07:59:21.299Z,17.58
2022-09-01T08:01:50.713Z,17.67
2022-09-01T08:04:23.879Z,17.72
2022-09-01T08:06:55.952Z,17.78
2022-09-01T08:09:37.002Z,17.82
2022-09-01T08:12:07.903Z,17.90
2022-09-01T08:14:36.702Z,17.97
2022-09-01T08:19:56.391Z,18.09
2022-09-01T08:22:27.016Z,18.15
2022-09-01T08:24:57.228Z,18.21
2022-09-01T08:27:25.840Z,18.30
2022-09-01T08:29:54.571Z,18.34
2022-09-01T08:32:23.197Z,18.38
2022-09-01T08:34:52.097Z,18.43
2022-09-01T08:37:22.203Z,18.49
2022-09-01T08:39:52.964Z,18.54
2022-09-01T08:42:41.267Z,18.57
2022-09-01T08:45:21.662Z,18.67
2022-09-01T08:48:22.480Z,18.72
2022-09-01T08:50:51.149Z,18.79
2022-09-01T08:53:32.676Z,18.82
2022-09-01T08:56:04.849Z,18.89
2022-09-01T08:58:34.241Z,18.91
2022-09-01T09:01:12.465Z,18.96
2022-09-01T09:03:58.438Z,19.03
2022-09-01T09:06:39.931Z,19.03
2022-09-01T09:09:11.037Z,19.04
2022-09-01T09:12:16.507Z,19.08
2022-09-01T09:15:07.016Z,19.16
2022-09-01T09:17:43.788Z,19.21
2022-09-01T09:20:12.378Z,19.21
2022-09-01T09:22:44.437Z,19.30
2022-09-01T09:25:19.465Z,19.32
2022-09-01T09:28:00.608Z,19.34
2022-09-01T09:30:33.228Z,19.40
2022-09-01T09:35:57.485Z,19.45
2022-09-01T09:38:30.424Z,19.49
2022-09-01T09:41:17.196Z,19.53
2022-09-01T09:43:59.029Z,19.59
2022-09-01T09:46:37.029Z,19.66
2022-09-01T09:49:36.533Z,19.72
2022-09-01T09:52:19.520Z,19.82
2022-09-01T09:55:23.036Z,19.90
2022-09-01T09:57:57.615Z,19.99
2022-09-01T10:00:31.701Z,20.06
2022-09-01T10:03:07.872Z,20.13
2022-09-01T10:05:45.274Z,20.20
2022-09-01T10:08:37.532Z,20.27
2022-09-01T10:11:08.301Z,20.30
2022-09-01T10:13:37.794Z,20.33
2022-09-01T10:16:24.279Z,20.34
2022-09-01T10:19:00.770Z,20.39
2022-09-01T10:21:37.984Z,20.39
2022-09-01T10:24:21.085Z,20.43
2022-09-01T10:26:58.501Z,20.46
2022-09-01T10:29:35.171Z,20.50
2022-09-01T10:32:34.622Z,20.53
2022-09-01T10:35:05.005Z,20.59
2022-09-01T10:37:35.922Z,20.68
2022-09-01T10:40:30.372Z,20.75
2022-09-01T10:43:22.915Z,20.79
2022-09-01T10:45:57.684Z,20.86
2022-09-01T10:48:46.363Z,20.91
2022-09-01T10:51:51.713Z,20.94
2022-09-01T10:55:02.703Z,20.98
2022-09-01T10:57:45.883Z,21.00
2022-09-01T11:04:02.110Z,21.16
2022-09-01T11:07:26.864Z,21.23
2022-09-01T11:10:34.237Z,21.27
2022-09-01T11:13:44.251Z,21.33
2022-09-01T11:16:51.896Z,21.38
2022-09-01T11:19:44.467Z,21.44
2022-09-01T11:22:27.623Z,21.47
2022-09-01T11:25:40.658Z,21.48
2022-09-01T11:28:44.205Z,21.52
2022-09-01T11:31:39.219Z,21.59
2022-09-01T11:34:21.194Z,21.66
2022-09-01T11:37:03.179Z,21.68
2022-09-01T11:39:44.217Z,21.71
2022-09-01T11:42:26.531Z,21.72
2022-09-01T11:45:03.233Z,21.74
2022-09-01T11:47:38.923Z,21.75
2022-09-01T11:50:20.479Z,21.75
2022-09-01T11:53:04.796Z,21.78
2022-09-01T11:55:37.079Z,21.79
2022-09-01T11:58:07.445Z,21.86
2022-09-01T12:00:39.065Z,21.89
2022-09-01T12:03:22.541Z,21.93
2022-09-01T12:06:01.750Z,21.97
2022-09-01T12:08:39.224Z,22.01
2022-09-01T12:11:13.099Z,22.01
2022-09-01T12:13:55.465Z,22.05
2022-09-01T12:16:24.305Z,22.13
2022-09-01T12:18:56.701Z,22.19
2022-09-01T12:21:29.078Z,22.22
2022-09-01T12:24:20.097Z,22.26
2022-09-01T12:26:51.663Z,22.27
2022-09-01T12:29:21.222Z,22.28
2022-09-01T12:31:52.861Z,22.32
2022-09-01T12:34:41.022Z,22.35
2022-09-01T12:37:24.318Z,22.30
2022-09-01T12:39:57.579Z,22.35
2022-09-01T12:42:41.537Z,22.35
2022-09-01T12:45:15.218Z,22.37
2022-09-01T12:47:52.520Z,22.41
2022-09-01T12:50:45.684Z,22.47
2022-09-01T12:53:24.104Z,22.54
2022-09-01T12:56:25.402Z,22.63
2022-09-01T12:59:16.056Z,22.70
2022-09-01T13:01:47.186Z,22.82
2022-09-01T13:04:31.052Z,22.94
2022-09-01T13:07:06.332Z,23.08
2022-09-01T13:09:35.384Z,23.14
2022-09-01T13:12:20.309Z,23.21
2022-09-01T13:14:49.465Z,23.25
2022-09-01T13:17:19.184Z,23.32
2022-09-01T13:19:48.390Z,23.36
2022-09-01T13:22:16.966Z,23.44
2022-09-01T13:24:45.499Z,23.51
2022-09-01T13:27:22.930Z,23.60
2022-09-01T13:29:52.783Z,23.60
2022-09-01T13:32:24.136Z,23.63
2022-09-01T13:34:55.764Z,23.67
2022-09-01T13:37:25.491Z,23.65
2022-09-01T13:39:54.692Z,23.58
2022-09-01T13:42:28.601Z,23.58
2022-09-01T13:44:58.065Z,23.57
2022-09-01T13:47:29.166Z,23.54
2022-09-01T13:50:09.927Z,23.56
2022-09-01T13:52:45.379Z,23.58
2022-09-01T13:55:17.939Z,23.59
2022-09-01T13:57:49.037Z,23.57
2022-09-01T14:00:24.280Z,23.51
2022-09-01T14:02:57.026Z,23.53
2022-09-01T14:05:29.579Z,23.55
2022-09-01T14:07:58.847Z,23.54
2022-09-01T14:10:31.971Z,23.54
2022-09-01T14:13:02.626Z,23.56
2022-09-01T14:15:31.681Z,23.64
2022-09-01T14:18:01.091Z,23.72
2022-09-01T14:20:36.935Z,23.74
2022-09-01T14:23:07.954Z,23.78
2022-09-01T14:25:38.982Z,23.73
2022-09-01T14:28:08.963Z,23.75
2022-09-01T14:30:37.991Z,23.75
2022-09-01T14:33:07.888Z,23.76
2022-09-01T14:35:40.716Z,23.72
2022-09-01T14:38:11.036Z,23.67
2022-09-01T14:40:42.276Z,23.65
2022-09-01T14:43:14.393Z,23.58
2022-09-01T14:45:46.019Z,23.55
2022-09-01T14:48:16.749Z,23.54
2022-09-01T14:50:49.998Z,23.52
2022-09-01T14:53:19.524Z,23.50
2022-09-01T14:55:50.513Z,23.51
2022-09-01T14:58:22.854Z,23.53
2022-09-01T15:00:52.698Z,23.57
2022-09-01T15:03:22.904Z,23.64
2022-09-01T15:05:52.300Z,23.75
2022-09-01T15:08:22.091Z,23.83
2022-09-01T15:10:50.930Z,23.85
2022-09-01T15:13:19.523Z,23.92
2022-09-01T15:15:49.501Z,23.92
2022-09-01T15:18:18.252Z,23.96
2022-09-01T15:20:46.802Z,24.04
2022-09-01T15:23:17.609Z,24.09
2022-09-01T15:25:47.019Z,24.10
2022-09-01T15:28:16.417Z,24.15
2022-09-01T15:30:49.146Z,24.18
2022-09-01T15:33:18.347Z,24.14
2022-09-01T15:35:48.064Z,24.16
2022-09-01T15:38:18.281Z,24.11
2022-09-01T15:40:58.033Z,24.10
2022-09-01T15:43:34.514Z,24.12
2022-09-01T15:46:06.147Z,24.13
2022-09-01T15:48:34.794Z,24.15
2022-09-01T15:51:32.495Z,24.15
2022-09-01T15:54:04.546Z,24.13
2022-09-01T15:56:35.240Z,24.11
2022-09-01T15:59:06.701Z,24.13
2022-09-01T16:01:42.281Z,24.12
2022-09-01T16:04:19.094Z,24.09
2022-09-01T16:06:49.548Z,24.07
2022-09-01T16:09:21.158Z,24.03
2022-09-01T16:11:49.879Z,24.02
2022-09-01T16:14:21.736Z,24.04
2022-09-01T16:17:04.120Z,23.99
2022-09-01T16:19:48.391Z,24.00
2022-09-01T16:22:23.718Z,23.99
2022-09-01T16:24:57.946Z,24.03
2022-09-01T16:27:34.722Z,24.00
2022-09-01T16:30:08.135Z,24.01
2022-09-01T16:32:40.641Z,24.00
2022-09-01T16:35:09.835Z,23.99
2022-09-01T16:37:53.748Z,23.99
2022-09-01T16:40:42.623Z,23.98
2022-09-01T16:43:26.607Z,24.01
2022-09-01T16:46:09.206Z,24.00
2022-09-01T16:48:53.781Z,23.96
2022-09-01T16:51:32.739Z,23.94
2022-09-01T16:54:21.679Z,23.93
2022-09-01T16:56:58.878Z,23.91
2022-09-01T16:59:40.040Z,23.88
2022-09-01T17:02:35.802Z,23.87
2022-09-01T17:05:22.058Z,23.86
2022-09-01T17:07:58.278Z,23.86
2022-09-01T17:10:42.149Z,23.87
2022-09-01T17:13:20.541Z,23.81
2022-09-01T17:16:02.727Z,23.75
2022-09-01T17:18:39.128Z,23.70
2022-09-01T17:21:21.976Z,23.70
2022-09-01T17:23:58.873Z,23.70
2022-09-01T17:26:30.754Z,23.64
2022-09-01T17:29:10.475Z,23.62
2022-09-01T17:32:03.560Z,23.55
2022-09-01T17:34:49.993Z,23.53
2022-09-01T17:37:40.061Z,23.47
2022-09-01T17:40:20.718Z,23.42
2022-09-01T17:43:03.128Z,23.35
2022-09-01T17:45:45.500Z,23.27
2022-09-01T17:48:21.398Z,23.21
2022-09-01T17:51:04.233Z,23.15
2022-09-01T17:53:50.742Z,23.09
2022-09-01T17:56:53.135Z,22.97
2022-09-01T17:59:33.891Z,22.88
2022-09-01T18:02:24.791Z,22.79
2022-09-01T18:05:09.750Z,22.70
2022-09-01T18:08:02.454Z,22.63
2022-09-01T18:10:41.398Z,22.55
2022-09-01T18:13:36.181Z,22.44
2022-09-01T18:16:18.819Z,22.33
2022-09-01T18:18:51.204Z,22.24
2022-09-01T18:21:24.703Z,22.17
2022-09-01T18:24:03.067Z,22.06
2022-09-01T18:26:38.098Z,22.01
2022-09-01T18:29:07.544Z,21.97
2022-09-01T18:32:08.489Z,21.86
2022-09-01T18:35:11.660Z,21.71
2022-09-01T18:37:59.649Z,21.64
2022-09-01T18:40:36.953Z,21.57
2022-09-01T18:43:23.664Z,21.54
2022-09-01T18:46:00.236Z,21.49
2022-09-01T18:48:50.230Z,21.44
2022-09-01T18:51:36.607Z,21.35
2022-09-01T18:54:15.598Z,21.28
2022-09-01T18:56:53.680Z,21.21
2022-09-01T18:59:50.400Z,21.18
2022-09-01T19:02:48.438Z,21.13
2022-09-01T19:05:33.367Z,21.03
2022-09-01T19:08:18.465Z,20.89
2022-09-01T19:10:54.924Z,20.81
2022-09-01T19:13:49.672Z,20.69
2022-09-01T19:16:39.679Z,20.66
2022-09-01T19:19:31.832Z,20.68
2022-09-01T19:22:01.981Z,20.66
2022-09-01T19:24:41.794Z,20.63
2022-09-01T19:27:15.261Z,20.54
2022-09-01T19:29:52.589Z,20.45
2022-09-01T19:32:28.799Z,20.44
2022-09-01T19:35:00.922Z,20.42
2022-09-01T19:37:29.638Z,20.37
2022-09-01T19:39:58.182Z,20.29
2022-09-01T19:42:35.580Z,20.21
2022-09-01T19:45:14.835Z,20.20
2022-09-01T19:47:53.268Z,20.16
2022-09-01T19:50:32.018Z,20.11
2022-09-01T19:53:08.450Z,19.99
2022-09-01T19:55:49.028Z,19.91
2022-09-01T19:58:25.401Z,19.89
2022-09-01T20:00:58.086Z,19.82
2022-09-01T20:03:38.117Z,19.74
2022-09-01T20:06:12.692Z,19.74
2022-09-01T20:08:49.320Z,19.70
2022-09-01T20:11:30.057Z,19.70
2022-09-01T20:14:26.752Z,19.67
2022-09-01T20:17:02.292Z,19.56
2022-09-01T20:19:42.211Z,19.46
2022-09-01T20:22:31.069Z,19.36
2022-09-01T20:25:10.793Z,19.37
2022-09-01T20:27:56.998Z,19.28
2022-09-01T20:30:31.305Z,19.23
2022-09-01T20:33:06.145Z,19.19
2022-09-01T20:35:47.206Z,19.10
2022-09-01T20:38:42.106Z,19.14
2022-09-01T20:41:19.263Z,19.09
2022-09-01T20:43:54.285Z,19.05
2022-09-01T20:46:25.909Z,19.03
2022-09-01T20:48:55.227Z,19.00
2022-09-01T20:51:39.228Z,18.91
2022-09-01T20:54:25.749Z,18.87
2022-09-01T20:57:12.074Z,18.85
2022-09-01T20:59:50.405Z,18.77
2022-09-01T21:02:40.542Z,18.71
2022-09-01T21:05:28.282Z,18.70
2022-09-01T21:08:19.255Z,18.66
2022-09-01T21:10:59.053Z,18.64
2022-09-01T21:13:52.939Z,18.47
2022-09-01T21:16:38.291Z,18.39
2022-09-01T21:19:20.653Z,18.36
2022-09-01T21:22:03.984Z,18.30
2022-09-01T21:24:34.255Z,18.28
2022-09-01T21:27:07.392Z,18.28
2022-09-01T21:29:50.890Z,18.22
2022-09-01T21:32:21.799Z,18.15
2022-09-01T21:34:53.080Z,18.06
2022-09-01T21:37:24.030Z,17.95
2022-09-01T21:39:58.050Z,17.89
2022-09-01T21:42:31.227Z,17.90
2022-09-01T21:45:01.733Z,17.92
2022-09-01T21:47:32.306Z,17.96
2022-09-01T21:50:01.309Z,17.92
2022-09-01T21:52:30.081Z,17.90
2022-09-01T21:55:00.449Z,17.90
2022-09-01T21:57:29.413Z,17.83
2022-09-01T21:59:58.014Z,17.79
2022-09-01T22:02:28.448Z,17.76
2022-09-01T22:04:57.570Z,17.69
2022-09-01T22:07:27.358Z,17.71
2022-09-01T22:09:57.816Z,17.68
2022-09-01T22:12:27.997Z,17.63
2022-09-01T22:14:56.498Z,17.67
2022-09-01T22:17:28.194Z,17.65
2022-09-01T22:19:57.445Z,17.62
2022-09-01T22:22:26.415Z,17.57
2022-09-01T22:24:55.073Z,17.54
2022-09-01T22:27:23.748Z,17.45
2022-09-01T22:29:53.636Z,17.43
2022-09-01T22:32:23.227Z,17.36
2022-09-01T22:34:52.058Z,17.36
2022-09-01T22:37:20.831Z,17.20
2022-09-01T22:39:49.967Z,17.08
2022-09-01T22:42:19.577Z,17.00
2022-09-01T22:44:49.970Z,17.02
2022-09-01T22:47:20.012Z,17.05
2022-09-01T22:49:49.515Z,17.03
2022-09-01T22:52:18.279Z,17.02
2022-09-01T22:54:47.074Z,16.94
2022-09-01T22:57:16.896Z,16.86
2022-09-01T22:59:45.994Z,16.79
2022-09-01T23:02:14.887Z,16.75
2022-09-01T23:04:46.853Z,16.77
2022-09-01T23:07:15.593Z,16.73
2022-09-01T23:09:44.760Z,16.71
2022-09-01T23:12:13.655Z,16.73
2022-09-01T23:14:43.478Z,16.69
2022-09-01T23:17:12.627Z,16.68
2022-09-01T23:19:41.762Z,16.63
2022-09-01T23:22:12.632Z,16.51
2022-09-01T23:24:41.210Z,16.41
2022-09-01T23:27:10.510Z,16.38
2022-09-01T23:29:39.406Z,16.43
2022-09-01T23:32:09.258Z,16.44
2022-09-01T23:34:37.904Z,16.39
2022-09-01T23:37:08.431Z,16.34
2022-09-01T23:39:38.358Z,16.30
2022-09-01T23:42:07.768Z,16.26
2022-09-01T23:44:36.967Z,16.19
2022-09-01T23:47:07.019Z,16.16
2022-09-01T23:49:35.865Z,16.14
2022-09-01T23:52:05.555Z,16.00
2022-09-01T23:54:34.584Z,15.96
2022-09-01T23:57:05.427Z,15.96
2022-09-01T23:59:34.388Z,15.93
